Time;durP1;ratioP1;P1;durP2;ratioP2;P2;SDS_P1;SDS_P2;PMS_P1;PMS_P2;Temp;Humidity;BMP_temperature;BMP_pressure;BME280_temperature;BME280_humidity;BME280_pressure;Samples;Min_cycle;Max_cycle;Signal;HPM_P1;HPM_P2
2023/06/01 00:00:31;;;;;;;10.93;7.43;;;;;;;12.46;100.00;95503.81;4882692;29;20104;-90
2023/06/01 00:02:56;;;;;;;8.90;8.00;;;;;;;12.55;100.00;95492.41;4879758;29;20742;-90
2023/06/01 00:05:22;;;;;;;9.88;8.73;;;;;;;12.38;100.00;95485.66;4888394;29;20029;-92
2023/06/01 00:07:47;;;;;;;8.48;7.78;;;;;;;12.28;100.00;95502.41;4888255;29;20036;-93
2023/06/01 00:10:13;;;;;;;8.73;7.70;;;;;;;12.19;100.00;95534.59;4875896;29;20056;-93
2023/06/01 00:12:39;;;;;;;8.45;7.82;;;;;;;12.23;100.00;95559.25;4888563;29;20020;-86
2023/06/01 00:15:04;;;;;;;13.00;8.60;;;;;;;12.40;100.00;95558.22;4875290;29;20815;-88
2023/06/01 00:17:31;;;;;;;9.98;8.98;;;;;;;12.31;100.00;95543.63;4886382;29;20035;-90
2023/06/01 00:19:57;;;;;;;9.27;8.55;;;;;;;12.32;100.00;95525.31;4887309;29;20050;-89
2023/06/01 00:22:23;;;;;;;13.93;9.00;;;;;;;12.30;100.00;95516.03;4883836;29;20036;-95
2023/06/01 00:24:50;;;;;;;9.65;8.77;;;;;;;12.14;100.00;95511.69;4870665;29;20040;-96
2023/06/01 00:27:15;;;;;;;12.40;8.40;;;;;;;11.99;100.00;95523.75;4887403;29;20024;-92
2023/06/01 00:29:41;;;;;;;9.68;8.73;;;;;;;11.79;100.00;95525.06;5590267;23;20015;-87
2023/06/01 00:32:06;;;;;;;12.65;8.38;;;;;;;11.89;100.00;95552.47;5526807;23;20060;-94
2023/06/01 00:34:32;;;;;;;9.88;9.07;;;;;;;11.90;100.00;95554.09;4882260;29;20028;-92
2023/06/01 00:36:57;;;;;;;9.82;8.82;;;;;;;11.84;100.00;95557.38;5772644;23;20020;-91
2023/06/01 00:44:33;;;;;;;9.23;8.30;;;;;;;11.80;100.00;95584.59;5088895;23;20063;-86
2023/06/01 00:46:59;;;;;;;7.55;6.95;;;;;;;11.73;100.00;95588.00;5139653;23;20066;-93
2023/06/01 00:49:25;;;;;;;8.95;8.15;;;;;;;11.75;100.00;95586.84;4916436;29;20086;-91
2023/06/01 00:51:51;;;;;;;10.05;9.10;;;;;;;11.60;100.00;95576.28;4903209;29;20036;-90
2023/06/01 00:54:17;;;;;;;9.98;8.95;;;;;;;11.67;100.00;95588.63;5406646;23;20070;-96
2023/06/01 00:56:42;;;;;;;8.63;7.82;;;;;;;11.84;100.00;95583.31;4891201;29;20076;-95
2023/06/01 00:59:08;;;;;;;8.48;7.78;;;;;;;11.82;100.00;95558.47;4892625;29;20079;-94
2023/06/01 01:01:33;;;;;;;8.95;8.13;;;;;;;11.95;100.00;95551.00;4875099;29;20470;-96
2023/06/01 01:04:00;;;;;;;8.57;7.82;;;;;;;11.77;100.00;95527.84;4910300;29;20111;-95
2023/06/01 01:06:26;;;;;;;10.40;9.38;;;;;;;11.64;100.00;95550.84;4893912;29;20044;-93
2023/06/01 01:11:37;;;;;;;10.00;9.05;;;;;;;11.51;100.00;95558.28;5270037;23;20071;-90
2023/06/01 01:14:27;;;;;;;9.65;8.73;;;;;;;11.59;100.00;95568.69;4889715;29;20601;-94
2023/06/01 01:19:57;;;;;;;8.55;7.53;;;;;;;11.58;100.00;95554.91;4956875;23;20066;-96
2023/06/01 01:22:59;;;;;;;10.98;7.10;;;;;;;11.40;100.00;95548.22;4882776;29;20067;-94
2023/06/01 01:30:48;;;;;;;8.52;7.72;;;;;;;11.40;100.00;95561.19;5308168;23;20064;-96
2023/06/01 01:33:14;;;;;;;8.20;7.50;;;;;;;11.48;100.00;95566.41;4891887;29;20040;-95
2023/06/01 01:35:40;;;;;;;8.40;7.75;;;;;;;11.52;100.00;95572.91;4893002;29;20671;-96
2023/06/01 01:38:06;;;;;;;7.90;7.30;;;;;;;11.61;100.00;95551.16;4877106;29;20036;-95
2023/06/01 01:40:31;;;;;;;8.60;7.72;;;;;;;11.59;100.00;95542.75;4881033;29;20032;-95
2023/06/01 01:42:57;;;;;;;10.32;7.90;;;;;;;11.45;100.00;95538.19;4909705;29;20464;-92
2023/06/01 01:45:22;;;;;;;8.90;8.00;;;;;;;11.36;100.00;95547.75;4907663;29;20036;-92
2023/06/01 01:58:09;;;;;;;10.50;8.80;;;;;;;11.22;100.00;95579.47;5018153;23;20087;-89
2023/06/01 02:00:34;;;;;;;9.27;7.38;;;;;;;11.47;100.00;95585.50;4930416;29;20036;-96
2023/06/01 02:03:00;;;;;;;12.02;8.38;;;;;;;11.53;100.00;95577.91;4907478;29;20059;-96
2023/06/01 02:05:25;;;;;;;11.65;8.18;;;;;;;11.53;100.00;95567.53;4916325;29;20035;-90
2023/06/01 02:07:51;;;;;;;9.63;8.70;;;;;;;11.52;100.00;95562.50;4943125;29;20086;-92
2023/06/01 02:10:16;;;;;;;9.70;8.88;;;;;;;11.56;100.00;95556.81;4947647;28;20051;-95
2023/06/01 02:12:42;;;;;;;9.82;8.30;;;;;;;11.41;100.00;95557.63;4926926;29;20466;-93
2023/06/01 02:15:07;;;;;;;15.35;9.15;;;;;;;11.36;100.00;95562.50;4918834;29;20087;-95
2023/06/01 02:20:28;;;;;;;9.05;8.15;;;;;;;11.20;100.00;95576.25;5835449;23;20063;-91
2023/06/01 02:22:54;;;;;;;9.07;8.30;;;;;;;11.34;100.00;95580.81;4912177;29;20036;-93
2023/06/01 02:25:19;;;;;;;9.63;8.63;;;;;;;11.10;100.00;95560.84;4881004;29;20550;-92
2023/06/01 02:30:20;;;;;;;9.15;7.95;;;;;;;11.08;100.00;95574.91;5773155;23;20067;-90
2023/06/01 02:32:48;;;;;;;8.45;7.70;;;;;;;11.08;100.00;95580.91;4916140;29;20043;-91
2023/06/01 02:35:14;;;;;;;8.63;7.82;;;;;;;11.13;100.00;95583.03;4922140;29;20439;-90
2023/06/01 02:37:39;;;;;;;8.35;7.28;;;;;;;11.17;100.00;95586.13;4888757;29;20040;-93
2023/06/01 02:40:11;;;;;;;10.10;8.63;;;;;;;11.03;100.00;95598.72;4881378;29;20103;-85
2023/06/01 02:42:38;;;;;;;8.93;8.15;;;;;;;11.03;100.00;95603.91;5545375;23;20776;-92
2023/06/01 02:45:05;;;;;;;10.80;7.43;;;;;;;11.06;100.00;95602.78;4943021;28;20486;-92
2023/06/01 02:47:30;;;;;;;8.60;7.82;;;;;;;11.05;100.00;95594.19;4941944;29;20035;-92
2023/06/01 02:49:56;;;;;;;9.38;7.60;;;;;;;11.13;100.00;95585.63;4947231;28;20401;-93
2023/06/01 02:52:21;;;;;;;8.48;7.68;;;;;;;11.21;100.00;95590.00;4941755;29;20035;-93
2023/06/01 02:54:47;;;;;;;7.72;7.03;;;;;;;11.20;100.00;95576.25;4936591;29;20063;-92
2023/06/01 02:59:47;;;;;;;8.35;7.57;;;;;;;11.13;100.00;95556.28;5226090;23;20071;-89
2023/06/01 03:02:13;;;;;;;9.90;8.60;;;;;;;11.11;100.00;95546.06;4942152;29;20083;-87
2023/06/01 03:04:38;;;;;;;8.48;7.78;;;;;;;11.05;100.00;95559.66;5056562;23;20016;-89
2023/06/01 03:07:04;;;;;;;10.63;7.40;;;;;;;11.02;100.00;95554.81;4908631;29;20040;-92
2023/06/01 03:09:30;;;;;;;8.27;7.35;;;;;;;11.04;100.00;95551.06;4879727;29;20033;-92
2023/06/01 03:11:56;;;;;;;10.13;7.82;;;;;;;11.11;100.00;95546.88;4879157;29;20088;-91
2023/06/01 03:14:21;;;;;;;9.52;7.47;;;;;;;11.13;100.00;95553.69;4892765;29;20483;-91
2023/06/01 03:16:46;;;;;;;10.15;7.40;;;;;;;11.31;100.00;95554.38;4892627;29;20021;-93
2023/06/01 03:19:12;;;;;;;7.03;6.28;;;;;;;11.20;100.00;95534.78;4892645;29;20028;-91
2023/06/01 03:21:37;;;;;;;9.02;7.82;;;;;;;11.23;100.00;95528.44;4890183;29;20117;-92
2023/06/01 03:24:03;;;;;;;7.25;6.18;;;;;;;11.24;100.00;95520.50;4890675;29;20088;-88
2023/06/01 03:26:28;;;;;;;7.10;6.47;;;;;;;11.33;100.00;95513.56;4889975;29;20093;-89
2023/06/01 03:28:55;;;;;;;8.13;7.40;;;;;;;11.26;100.00;95482.28;4889992;29;20077;-90
2023/06/01 03:31:21;;;;;;;17.63;15.80;;;;;;;11.36;100.00;95476.91;4898578;29;20075;-89
2023/06/01 03:33:47;;;;;;;12.55;11.35;;;;;;;11.45;100.00;95476.75;4866600;29;20414;-90
2023/06/01 03:36:13;;;;;;;14.43;13.00;;;;;;;11.52;100.00;95469.94;4890876;29;20028;-90
2023/06/01 03:38:38;;;;;;;13.50;12.38;;;;;;;11.61;100.00;95450.81;4889796;29;20033;-91
2023/06/01 03:41:03;;;;;;;10.95;10.05;;;;;;;11.80;100.00;95446.25;4891160;29;20609;-92
2023/06/01 03:43:29;;;;;;;13.73;12.25;;;;;;;12.25;100.00;95428.25;4889980;29;20045;-92
2023/06/01 03:45:56;;;;;;;12.95;10.13;;;;;;;12.78;100.00;95333.91;4889932;29;20123;-89
2023/06/01 03:48:21;;;;;;;10.05;9.25;;;;;;;12.40;100.00;95288.06;4889916;29;20020;-88
2023/06/01 03:50:46;;;;;;;16.35;8.98;;;;;;;13.40;100.00;95273.84;4898537;29;20518;-87
2023/06/01 03:53:12;;;;;;;7.78;7.10;;;;;;;13.52;100.00;95170.94;4888886;29;20028;-87
2023/06/01 03:55:37;;;;;;;7.80;6.85;;;;;;;13.24;100.00;95164.78;4888150;29;20055;-87
2023/06/01 03:58:04;;;;;;;7.50;6.65;;;;;;;14.72;100.00;95105.69;4889091;29;20119;-88
2023/06/01 04:00:30;;;;;;;4.90;4.40;;;;;;;15.28;100.00;95033.25;4888794;29;20190;-87
2023/06/01 04:02:58;;;;;;;5.70;4.93;;;;;;;15.82;100.00;95008.84;4890932;29;20044;-91
2023/06/01 04:05:25;;;;;;;5.45;5.05;;;;;;;15.73;100.00;95007.47;4890302;29;20135;-90
2023/06/01 04:07:53;;;;;;;6.22;5.72;;;;;;;16.06;100.00;95010.03;4889035;29;20055;-86
2023/06/01 04:10:19;;;;;;;6.63;6.03;;;;;;;16.68;100.00;94999.88;4888459;29;20059;-89
2023/06/01 04:12:45;;;;;;;4.38;4.07;;;;;;;17.19;100.00;94988.56;4877459;29;20042;-88
2023/06/01 04:15:12;;;;;;;4.90;4.50;;;;;;;17.90;100.00;94974.16;4889116;29;20912;-86
2023/06/01 04:17:38;;;;;;;5.72;5.07;;;;;;;18.23;100.00;94968.63;4885922;29;20503;-87
2023/06/01 04:20:06;;;;;;;6.18;5.68;;;;;;;18.23;100.00;94960.75;4887155;29;20040;-85
2023/06/01 04:22:32;;;;;;;7.80;7.10;;;;;;;18.24;100.00;94957.09;4886167;29;20026;-85
2023/06/01 04:24:58;;;;;;;6.72;5.97;;;;;;;19.08;100.00;94958.94;4887640;29;20024;-81
2023/06/01 04:27:24;;;;;;;6.72;6.00;;;;;;;19.43;100.00;94948.56;4885765;29;20029;-82
2023/06/01 04:29:50;;;;;;;6.78;5.60;;;;;;;19.91;100.00;94964.19;4885848;29;20060;-83
2023/06/01 04:32:21;;;;;;;6.78;6.25;;;;;;;20.03;100.00;94949.25;4886268;29;20521;-83
2023/06/01 04:34:49;;;;;;;5.90;5.40;;;;;;;20.82;100.00;94947.75;4878058;29;20065;-83
2023/06/01 04:37:15;;;;;;;5.90;5.35;;;;;;;20.92;98.99;94943.50;4880409;29;20052;-80
2023/06/01 04:39:42;;;;;;;5.95;5.22;;;;;;;21.30;96.71;94947.34;4885716;29;20116;-84
2023/06/01 04:42:08;;;;;;;5.82;5.32;;;;;;;21.54;93.58;94938.31;4885377;29;20036;-84
2023/06/01 04:44:34;;;;;;;5.22;4.80;;;;;;;22.16;89.56;94941.63;4885638;29;20033;-82
2023/06/01 04:47:03;;;;;;;5.00;4.50;;;;;;;21.81;90.00;94941.88;4885274;29;20041;-82
2023/06/01 04:49:30;;;;;;;5.72;5.20;;;;;;;22.49;84.75;94946.84;4886486;29;20456;-82
2023/06/01 04:51:55;;;;;;;6.75;5.13;;;;;;;21.83;92.18;94954.84;4884890;29;20036;-84
2023/06/01 04:54:20;;;;;;;6.03;5.43;;;;;;;21.88;94.36;94950.44;4882118;29;20040;-84
2023/06/01 04:56:46;;;;;;;6.10;5.60;;;;;;;22.40;90.21;94956.25;4883683;29;20040;-84
2023/06/01 04:59:12;;;;;;;4.38;4.07;;;;;;;22.98;85.67;94955.69;4881631;29;20043;-84
2023/06/01 05:01:39;;;;;;;5.05;4.70;;;;;;;22.57;84.14;94958.84;4885127;29;20036;-84
2023/06/01 05:04:04;;;;;;;5.20;4.82;;;;;;;22.76;85.53;94959.38;4868739;29;20047;-86
2023/06/01 05:09:04;;;;;;;5.28;4.88;;;;;;;23.73;79.12;94957.47;4892834;29;20071;-83
2023/06/01 05:11:30;;;;;;;5.30;4.75;;;;;;;24.26;72.13;94951.28;4899714;29;20768;-81
2023/06/01 05:14:01;;;;;;;5.43;4.38;;;;;;;23.89;71.07;94961.84;4904499;29;20039;-81
2023/06/01 05:16:27;;;;;;;5.30;4.80;;;;;;;24.77;68.49;94951.56;4908281;29;20035;-81
2023/06/01 05:18:52;;;;;;;5.40;5.00;;;;;;;24.20;72.24;94957.63;4887920;29;20035;-84
2023/06/01 05:21:17;;;;;;;5.47;4.97;;;;;;;25.29;64.05;94949.63;4887469;29;20159;-85
2023/06/01 05:23:43;;;;;;;5.82;5.43;;;;;;;26.62;59.99;94952.81;4869746;29;20036;-84
2023/06/01 05:26:08;;;;;;;7.78;4.65;;;;;;;26.37;59.28;94952.88;4873497;29;20039;-84
2023/06/01 05:28:35;;;;;;;5.68;4.63;;;;;;;27.41;55.34;94957.28;4900211;29;20040;-85
2023/06/01 05:31:01;;;;;;;4.85;4.45;;;;;;;27.24;55.87;94951.53;4873864;29;20037;-85
2023/06/01 05:33:28;;;;;;;4.20;3.90;;;;;;;27.53;54.63;94949.78;4890931;29;20088;-84
2023/06/01 05:35:53;;;;;;;4.65;3.92;;;;;;;27.19;55.18;94947.06;4905094;29;20068;-87
2023/06/01 05:38:19;;;;;;;4.10;3.80;;;;;;;28.38;51.60;94962.72;4882442;29;20063;-83
2023/06/01 05:40:45;;;;;;;6.45;4.65;;;;;;;28.92;50.44;94955.22;4875698;29;20024;-86
2023/06/01 05:43:11;;;;;;;4.38;3.97;;;;;;;29.68;47.60;94944.34;4890916;29;20360;-85
2023/06/01 05:45:36;;;;;;;5.15;4.75;;;;;;;30.00;46.29;94948.13;4875063;29;20047;-85
2023/06/01 05:48:02;;;;;;;5.22;4.82;;;;;;;29.65;46.71;94950.25;4876006;29;20032;-86
2023/06/01 05:50:27;;;;;;;4.22;3.88;;;;;;;30.21;46.88;94952.06;4909015;29;20036;-85
2023/06/01 05:52:53;;;;;;;4.72;4.43;;;;;;;29.98;46.52;94958.34;4890253;29;20028;-87
2023/06/01 05:55:19;;;;;;;6.88;4.05;;;;;;;30.21;45.17;94958.19;4882357;29;20124;-86
2023/06/01 05:57:45;;;;;;;5.03;4.38;;;;;;;29.67;47.95;94948.06;4902590;29;20024;-86
2023/06/01 06:00:13;;;;;;;5.17;4.23;;;;;;;30.12;45.69;94959.16;4905611;29;20064;-87
2023/06/01 06:02:39;;;;;;;4.68;4.20;;;;;;;30.44;45.54;94947.69;4905315;29;20084;-87
2023/06/01 06:05:05;;;;;;;4.85;3.85;;;;;;;31.22;45.41;94960.88;4902939;29;20414;-85
2023/06/01 06:07:31;;;;;;;4.53;4.22;;;;;;;30.34;45.60;94959.34;4870287;29;20045;-88
2023/06/01 06:09:57;;;;;;;6.90;4.57;;;;;;;25.23;62.61;94961.31;4870660;29;20036;-87
2023/06/01 06:12:22;;;;;;;4.82;4.43;;;;;;;30.45;48.51;94965.31;4872344;29;20119;-87
2023/06/01 06:14:48;;;;;;;5.32;4.90;;;;;;;30.75;45.42;94962.88;4868404;29;20040;-87
2023/06/01 06:17:14;;;;;;;4.95;4.57;;;;;;;30.35;46.86;94960.91;4875254;29;20041;-88
2023/06/01 06:19:43;;;;;;;5.70;5.30;;;;;;;25.83;60.52;94965.91;4881762;29;20431;-87
2023/06/01 06:22:09;;;;;;;5.28;4.75;;;;;;;23.18;78.08;94963.03;4889913;29;20118;-88
2023/06/01 06:24:34;;;;;;;9.10;5.97;;;;;;;22.68;86.11;94973.78;4888306;29;20040;-88
2023/06/01 06:27:00;;;;;;;6.82;6.18;;;;;;;21.98;92.61;94963.81;4889739;29;20151;-89
2023/06/01 06:29:25;;;;;;;7.03;6.25;;;;;;;21.57;94.86;94966.81;4874097;29;20096;-89
2023/06/01 06:31:51;;;;;;;8.13;6.22;;;;;;;21.91;94.45;94963.19;4872050;29;20036;-88
2023/06/01 06:34:16;;;;;;;5.95;5.45;;;;;;;23.31;88.77;94967.91;4868572;29;20040;-86
2023/06/01 06:36:41;;;;;;;6.88;5.68;;;;;;;23.12;83.52;94969.28;4879285;29;20428;-88
2023/06/01 06:39:07;;;;;;;6.30;5.57;;;;;;;23.43;79.04;94967.81;4860275;29;20032;-88
2023/06/01 06:41:32;;;;;;;6.10;5.60;;;;;;;27.82;57.24;94963.16;4881243;29;20550;-88
2023/06/01 06:43:58;;;;;;;5.75;5.22;;;;;;;29.69;50.13;94947.81;4881174;29;20040;-87
2023/06/01 06:46:24;;;;;;;5.97;5.45;;;;;;;30.61;47.62;94948.69;4885073;29;20053;-88
2023/06/01 06:48:50;;;;;;;5.57;5.20;;;;;;;30.85;47.10;94943.16;4888599;29;20047;-84
2023/06/01 06:51:16;;;;;;;6.30;5.80;;;;;;;28.97;51.44;94949.81;4890143;29;20032;-86
2023/06/01 06:53:41;;;;;;;9.68;6.50;;;;;;;26.61;59.79;94947.78;4881542;29;20108;-86
2023/06/01 06:56:07;;;;;;;5.75;5.35;;;;;;;25.67;60.37;94943.88;4872122;29;20037;-83
2023/06/01 06:58:32;;;;;;;6.10;5.45;;;;;;;26.15;62.89;94944.41;4889051;29;20085;-89
2023/06/01 07:00:58;;;;;;;6.20;5.38;;;;;;;26.08;64.21;94947.31;4873614;29;20104;-89
2023/06/01 07:03:24;;;;;;;5.95;5.35;;;;;;;25.14;67.03;94941.66;4889300;29;20032;-89
2023/06/01 07:05:49;;;;;;;6.10;5.10;;;;;;;25.42;67.11;94940.38;4891030;29;20893;-89
2023/06/01 07:08:15;;;;;;;6.05;5.30;;;;;;;27.15;64.28;94934.56;4873933;29;20051;-86
2023/06/01 07:10:40;;;;;;;5.30;4.90;;;;;;;28.65;57.50;94941.63;4872960;29;20044;-87
2023/06/01 07:13:06;;;;;;;6.20;5.70;;;;;;;25.66;65.52;94936.19;4873557;29;20089;-88
2023/06/01 07:15:31;;;;;;;6.65;5.88;;;;;;;25.47;67.14;94935.88;4890086;29;20418;-84
2023/06/01 07:17:56;;;;;;;5.93;5.40;;;;;;;25.66;70.27;94936.19;4871842;29;20056;-86
2023/06/01 07:20:22;;;;;;;6.40;5.68;;;;;;;25.57;69.38;94938.56;4887643;29;20028;-89
2023/06/01 07:22:49;;;;;;;8.18;6.10;;;;;;;25.35;71.94;94940.63;4889378;29;20040;-89
2023/06/01 07:25:15;;;;;;;5.93;5.10;;;;;;;25.44;71.64;94933.75;4889239;29;20025;-88
2023/06/01 07:27:42;;;;;;;6.55;5.95;;;;;;;25.68;73.10;94934.06;4888991;29;20040;-85
2023/06/01 07:30:09;;;;;;;7.80;5.70;;;;;;;25.67;72.92;94930.63;4873008;29;20036;-87
2023/06/01 07:32:35;;;;;;;6.22;4.85;;;;;;;25.07;74.82;94927.84;4870716;29;20031;-82
2023/06/01 07:35:01;;;;;;;9.48;5.30;;;;;;;25.29;72.55;94924.97;4856142;29;20021;-90
2023/06/01 07:37:27;;;;;;;5.72;5.20;;;;;;;25.86;73.42;94920.25;4888355;29;20029;-88
2023/06/01 07:39:55;;;;;;;6.50;5.45;;;;;;;26.02;77.75;94926.34;4857963;29;20025;-79
2023/06/01 07:42:21;;;;;;;10.98;5.13;;;;;;;25.92;73.74;94918.38;4881787;29;20039;-87
2023/06/01 07:44:47;;;;;;;10.10;5.63;;;;;;;26.02;71.50;94913.06;4857002;29;20037;-85
2023/06/01 07:47:12;;;;;;;5.53;5.03;;;;;;;25.54;73.82;94917.88;4884538;29;20032;-89
2023/06/01 07:49:38;;;;;;;5.60;4.68;;;;;;;25.57;71.60;94919.19;4889912;29;20429;-87
2023/06/01 07:52:05;;;;;;;9.23;5.18;;;;;;;25.15;69.35;94904.25;4889182;29;20513;-87
2023/06/01 07:54:31;;;;;;;7.85;5.43;;;;;;;25.07;70.83;94902.13;4886719;29;20044;-89
2023/06/01 07:56:56;;;;;;;10.57;5.55;;;;;;;25.74;71.26;94903.81;4872757;29;20047;-88
2023/06/01 07:59:23;;;;;;;9.20;5.43;;;;;;;25.96;71.66;94908.84;4871288;29;20479;-89
2023/06/01 08:01:51;;;;;;;5.90;5.40;;;;;;;25.76;67.47;94900.88;4873612;29;20051;-91
2023/06/01 08:04:20;;;;;;;10.00;4.85;;;;;;;25.62;69.81;94904.06;4876101;29;20026;-87
2023/06/01 08:06:46;;;;;;;5.18;4.43;;;;;;;26.03;66.47;94902.19;4880319;29;20033;-89
2023/06/01 08:09:12;;;;;;;6.07;4.93;;;;;;;25.99;69.45;94898.47;4868608;29;20108;-85
2023/06/01 08:11:37;;;;;;;5.63;5.10;;;;;;;25.97;66.93;94897.97;4885522;29;20032;-85
2023/06/01 08:14:04;;;;;;;5.50;5.00;;;;;;;24.56;69.25;94903.75;4873074;29;20423;-87
2023/06/01 08:16:30;;;;;;;6.10;5.25;;;;;;;24.60;76.16;94907.50;4900623;29;20628;-87
2023/06/01 08:18:56;;;;;;;4.70;4.30;;;;;;;25.51;70.29;94897.19;4873256;29;20430;-84
2023/06/01 08:21:23;;;;;;;5.43;4.80;;;;;;;25.38;69.01;94895.00;4885962;29;20036;-86
2023/06/01 08:23:51;;;;;;;6.88;5.40;;;;;;;24.56;68.28;94893.16;4888560;29;20040;-86
2023/06/01 08:26:18;;;;;;;6.20;4.50;;;;;;;24.41;71.55;94892.31;4889241;29;20096;-88
2023/06/01 08:28:51;;;;;;;4.90;4.50;;;;;;;25.35;70.26;94886.78;4872571;29;20063;-90
2023/06/01 08:31:17;;;;;;;7.35;5.10;;;;;;;25.57;69.34;94877.53;4873190;29;20376;-89
2023/06/01 08:33:42;;;;;;;5.40;4.80;;;;;;;25.97;67.14;94876.72;4887146;29;20044;-87
2023/06/01 08:36:08;;;;;;;4.93;4.53;;;;;;;26.52;67.27;94872.34;4887053;29;20526;-89
2023/06/01 08:38:33;;;;;;;7.82;4.93;;;;;;;26.32;67.99;94875.88;4888022;29;20483;-89
2023/06/01 08:41:02;;;;;;;4.97;4.40;;;;;;;25.87;64.24;94871.41;4888733;29;20052;-82
2023/06/01 08:43:31;;;;;;;4.97;4.57;;;;;;;26.29;71.21;94860.47;4856254;29;20037;-82
2023/06/01 08:45:56;;;;;;;;;;;;;;;26.83;68.26;94865.03;4872687;29;20080;-87
2023/06/01 08:48:22;;;;;;;4.73;4.33;;;;;;;26.53;66.17;94853.47;4887466;29;19927;-86
2023/06/01 08:50:50;;;;;;;6.30;4.68;;;;;;;26.45;63.67;94854.03;4868829;29;21954;-84
2023/06/01 08:53:21;;;;;;;5.40;4.90;;;;;;;26.35;61.06;94853.28;4886429;29;20526;-88
2023/06/01 08:55:51;;;;;;;6.80;4.80;;;;;;;26.66;66.10;94852.06;4861796;29;20426;-88
2023/06/01 08:58:16;;;;;;;9.27;4.60;;;;;;;26.56;59.97;94844.94;4874240;29;20043;-84
2023/06/01 09:00:42;;;;;;;4.57;4.18;;;;;;;26.87;65.78;94844.81;4878774;29;20037;-84
2023/06/01 09:03:07;;;;;;;5.43;4.60;;;;;;;27.42;62.44;94847.09;4872779;29;20037;-87
2023/06/01 09:05:33;;;;;;;5.28;4.43;;;;;;;26.53;61.68;94836.72;4888603;29;20017;-87
2023/06/01 09:07:58;;;;;;;4.63;4.32;;;;;;;26.47;60.27;94846.56;4879947;29;20586;-88
2023/06/01 09:10:27;;;;;;;4.20;3.90;;;;;;;26.81;58.54;94846.69;4875644;29;20045;-85
2023/06/01 09:12:53;;;;;;;;;;;;;;;26.36;56.24;94849.56;4869921;29;21380;-86
2023/06/01 09:15:20;;;;;;;6.20;4.55;;;;;;;24.29;57.17;94842.22;4868425;29;20006;-87
2023/06/01 09:17:50;;;;;;;6.43;4.30;;;;;;;24.69;62.08;94836.28;4859216;29;21078;-78
2023/06/01 09:20:27;;;;;;;6.72;4.50;;;;;;;25.55;61.49;94833.75;4873556;29;20033;-86
2023/06/01 09:22:54;;;;;;;4.88;4.30;;;;;;;25.12;55.29;94832.38;4879341;29;20990;-87
2023/06/01 09:25:29;;;;;;;4.85;4.38;;;;;;;24.79;61.57;94836.28;4884070;29;20032;-86
2023/06/01 09:27:56;;;;;;;4.28;3.97;;;;;;;26.19;55.58;94828.63;4884911;29;20809;-85
2023/06/01 09:30:24;;;;;;;5.43;4.15;;;;;;;26.86;55.59;94829.94;4864859;29;20662;-87
2023/06/01 09:32:53;;;;;;;6.68;4.30;;;;;;;26.18;52.29;94827.03;4875125;29;20047;-83
2023/06/01 09:35:38;;;;;;;7.78;4.10;;;;;;;26.31;50.36;94829.09;4869701;29;20531;-82
2023/06/01 09:38:05;;;;;;;5.10;3.90;;;;;;;24.89;53.94;94828.38;4883418;29;20029;-85
2023/06/01 09:40:32;;;;;;;4.53;4.13;;;;;;;26.03;60.58;94816.44;4868686;29;20064;-87
2023/06/01 09:42:57;;;;;;;4.88;4.40;;;;;;;25.41;52.78;94814.09;4885891;29;20059;-86
2023/06/01 09:45:23;;;;;;;4.90;3.92;;;;;;;25.93;52.38;94814.59;4885154;29;20483;-85
2023/06/01 09:47:49;;;;;;;5.15;4.03;;;;;;;25.81;52.86;94806.13;4884558;29;20043;-86
2023/06/01 09:50:33;;;;;;;6.15;3.97;;;;;;;26.28;55.95;94804.94;4868466;29;20053;-85
2023/06/01 09:52:59;;;;;;;5.63;4.03;;;;;;;26.45;52.79;94798.22;4868302;29;20566;-85
2023/06/01 09:55:25;;;;;;;4.70;4.05;;;;;;;26.41;55.18;94797.19;4868315;29;20091;-83
2023/06/01 09:57:50;;;;;;;6.80;4.22;;;;;;;26.38;52.08;94794.28;4884496;29;20033;-82
2023/06/01 10:00:24;;;;;;;5.95;4.18;;;;;;;25.12;50.28;94792.63;4887386;29;20032;-87
2023/06/01 10:02:53;;;;;;;6.10;4.20;;;;;;;25.12;51.33;94792.63;4886180;29;20048;-85
2023/06/01 10:05:18;;;;;;;4.43;4.10;;;;;;;25.27;51.29;94784.66;4888377;29;20036;-83
2023/06/01 10:07:44;;;;;;;4.63;4.22;;;;;;;25.57;50.00;94779.34;4869987;29;20108;-83
2023/06/01 10:10:13;;;;;;;6.22;4.10;;;;;;;25.78;46.48;94774.03;4890939;29;20475;-84
2023/06/01 10:12:39;;;;;;;4.25;3.92;;;;;;;25.19;46.14;94771.94;4881184;29;20573;-89
2023/06/01 10:15:05;;;;;;;6.43;4.07;;;;;;;25.50;46.43;94788.66;4869239;29;20029;-84
2023/06/01 10:17:32;;;;;;;6.13;4.50;;;;;;;25.56;46.93;94780.41;4853154;29;20047;-81
2023/06/01 10:19:57;;;;;;;6.95;3.50;;;;;;;26.38;45.83;94781.00;4871937;29;20036;-86
2023/06/01 10:22:23;;;;;;;5.88;4.20;;;;;;;26.10;46.82;94777.09;4868236;29;20037;-82
2023/06/01 10:24:48;;;;;;;8.20;4.43;;;;;;;25.62;49.10;94774.03;4884478;29;20037;-88
2023/06/01 10:27:25;;;;;;;4.97;4.47;;;;;;;25.00;47.98;94773.53;4870994;29;20040;-84
2023/06/01 10:29:53;;;;;;;7.18;4.40;;;;;;;24.90;50.31;94757.63;4855814;29;20029;-87
2023/06/01 10:32:40;;;;;;;5.60;4.60;;;;;;;25.56;47.08;94767.16;4887627;29;20040;-81
2023/06/01 10:35:06;;;;;;;11.85;4.57;;;;;;;25.79;45.00;94757.00;4887862;29;20036;-84
2023/06/01 10:37:31;;;;;;;5.43;4.72;;;;;;;25.67;44.16;94752.81;4870715;29;20044;-88
2023/06/01 10:40:22;;;;;;;7.57;4.57;;;;;;;25.97;44.40;94762.53;4873222;29;20028;-88
2023/06/01 10:42:48;;;;;;;16.08;4.82;;;;;;;26.52;45.58;94753.53;4889113;29;20052;-85
2023/06/01 10:45:41;;;;;;;6.68;4.78;;;;;;;26.79;51.13;94747.78;4870726;29;20434;-80
2023/06/01 10:48:09;;;;;;;6.63;4.40;;;;;;;26.11;45.40;94752.91;4876434;29;20040;-84
2023/06/01 10:50:35;;;;;;;;;;;;;;;26.09;45.61;94749.75;4887550;29;20029;-87
2023/06/01 10:53:22;;;;;;;6.18;4.70;;;;;;;25.36;40.86;94742.50;4871101;29;19922;-78
2023/06/01 10:56:18;;;;;;;4.93;4.53;;;;;;;25.97;42.03;94743.97;4885626;29;20043;-85
2023/06/01 10:58:43;;;;;;;4.85;4.40;;;;;;;26.33;46.38;94733.97;4879071;29;20041;-82
2023/06/01 11:01:10;;;;;;;5.72;5.15;;;;;;;25.24;48.78;94739.34;4854249;29;20044;-83
2023/06/01 11:03:43;;;;;;;8.40;4.70;;;;;;;24.56;50.49;94739.53;4871980;29;20123;-83
2023/06/01 11:06:28;;;;;;;5.55;4.57;;;;;;;24.48;52.86;94728.66;4875959;29;20502;-84
2023/06/01 11:08:56;;;;;;;6.90;4.88;;;;;;;24.07;52.07;94727.72;4859348;29;20051;-80
2023/06/01 11:11:21;;;;;;;5.30;4.45;;;;;;;24.17;53.56;94725.16;4886511;29;20036;-85
2023/06/01 11:14:10;;;;;;;4.95;4.55;;;;;;;24.23;53.71;94731.25;4887514;29;20545;-84
2023/06/01 11:16:36;;;;;;;4.47;4.18;;;;;;;25.38;51.66;94722.59;4870630;29;20032;-85
2023/06/01 11:19:03;;;;;;;8.05;4.55;;;;;;;25.44;51.63;94720.72;4869997;29;20424;-85
2023/06/01 11:21:40;;;;;;;7.63;4.47;;;;;;;25.66;50.52;94714.06;4870645;29;20123;-82
2023/06/01 11:24:09;;;;;;;5.20;4.63;;;;;;;25.13;50.28;94706.72;4869722;29;20036;-85
2023/06/01 11:26:39;;;;;;;5.20;4.47;;;;;;;25.18;49.98;94701.41;4870199;29;20475;-87
2023/06/01 11:29:16;;;;;;;4.28;3.88;;;;;;;24.81;48.21;94706.16;4866816;29;20120;-87
2023/06/01 11:31:56;;;;;;;7.85;4.70;;;;;;;24.93;48.09;94698.78;4877646;29;20035;-85
2023/06/01 11:34:34;;;;;;;5.88;4.43;;;;;;;25.53;49.13;94692.59;4854699;29;20051;-86
2023/06/01 11:37:00;;;;;;;4.40;4.00;;;;;;;25.72;49.30;94696.25;4869333;29;20100;-82
2023/06/01 11:39:29;;;;;;;5.43;4.05;;;;;;;25.30;48.47;94693.94;4869818;29;20029;-89
2023/06/01 11:42:05;;;;;;;4.95;4.47;;;;;;;25.22;49.51;94697.16;4886338;29;20474;-85
2023/06/01 11:44:31;;;;;;;4.13;3.72;;;;;;;24.50;47.55;94697.38;4886721;29;20029;-85
2023/06/01 11:46:58;;;;;;;4.95;4.45;;;;;;;24.46;48.74;94701.66;4868943;29;20888;-80
2023/06/01 11:49:24;;;;;;;4.88;4.03;;;;;;;24.37;50.48;94693.41;4869717;29;20116;-81
2023/06/01 11:51:53;;;;;;;4.70;4.25;;;;;;;24.51;50.06;94697.13;4869348;29;20036;-87
2023/06/01 11:54:28;;;;;;;5.50;4.43;;;;;;;25.51;45.04;94698.19;4869812;29;20036;-77
2023/06/01 11:56:54;;;;;;;5.28;4.10;;;;;;;25.20;45.52;94707.25;4886001;29;20079;-86
2023/06/01 11:59:21;;;;;;;5.22;3.95;;;;;;;25.00;46.90;94704.59;4880911;29;20033;-78
2023/06/01 12:01:47;;;;;;;5.68;4.25;;;;;;;24.80;45.61;94721.28;4869080;29;20620;-80
2023/06/01 12:04:16;;;;;;;5.50;4.53;;;;;;;24.28;51.41;94715.38;4886620;29;20420;-83
2023/06/01 12:06:42;;;;;;;5.90;4.80;;;;;;;24.15;54.46;94716.66;4868774;29;20488;-82